Flight Track Log - Related Links

Times and Time Zones

All times are in EDT time to prevent confusion due to time zone crossing. See the JBU1741 flight status page for this flight to view local times or setup timezone preferences in your user account.

Time Position Orientation Groundspeed Altitude Reporting Facility
EDT Latitude Longitude Course Direction KTS MPH feet Rate Location/Type
Wed 10:35:27 AM 18.4333 -65.9667 276° West 160 184 1,600  Level San Juan Center
Wed 10:36:28 AM 18.4667 -65.9667 360° North 250 288 3,600 2,579 Climbing San Juan Center
Wed 10:37:28 AM 18.5333 -66.0000 335° Northwest 250 288 6,800 2,950 Climbing San Juan Center
Wed 10:38:00 AM 18.4500 -66.3832 270° West  Level FlightAware Approximate
Wed 10:38:28 AM 18.5500 -66.0833 282° West 300 345 9,500  Level San Juan Center
Wed 10:39:00 AM 18.4546 -66.4792 276° West  Level FlightAware Approximate
Wed 10:39:29 AM 18.5500 -66.1667 270° West 330 380 10,000  Level San Juan Center
Wed 10:40:00 AM 18.4642 -66.5749 276° West  Level FlightAware Approximate
Wed 10:40:29 AM 18.5333 -66.2667 260° West 370 426 10,000  Level San Juan Center
Wed 10:41:29 AM 18.5333 -66.3833 270° West 370 426 12,200 2,380 Climbing San Juan Center
Wed 10:42:30 AM 18.5333 -66.4833 270° West 370 426 14,800 2,430 Climbing San Juan Center
Wed 10:43:30 AM 18.5167 -66.6000 261° West 380 437 17,100 2,250 Climbing San Juan Center
Wed 10:44:30 AM 18.5167 -66.7167 270° West 400 460 19,300 2,100 Climbing San Juan Center
Wed 10:45:30 AM 18.5000 -66.8167 260° West 400 460 21,300 1,650 Climbing San Juan Center
Wed 10:46:30 AM 18.5000 -66.9333 270° West 410 472 22,600 1,339 Climbing San Juan Center
Wed 10:47:31 AM 18.4833 -67.0667 263° West 430 495 24,000 694 Climbing San Juan Center
Wed 10:48:31 AM 18.4833 -67.1833 270° West 440 506 24,000  Level San Juan Center
Wed 10:49:31 AM 18.4833 -67.3167 270° West 430 495 24,000  Level San Juan Center
Wed 10:50:32 AM 18.4833 -67.4500 270° West 430 495 24,000  Level San Juan Center
Wed 10:51:32 AM 18.4833 -67.5667 270° West 430 495 24,000  Level San Juan Center
Wed 10:52:32 AM 18.4667 -67.7000 263° West 440 506 24,000  Level San Juan Center
Wed 10:53:33 AM 18.4667 -67.8167 270° West 430 495 24,000  Level San Juan Center
Wed 10:54:33 AM 18.4667 -67.9500 270° West 430 495 24,000  Level San Juan Center
Wed 10:56:00 AM 18.4667 -68.0896 270° West  Level FlightAware Approximate
Wed 11:03:00 AM 18.4520 -68.7632 268° West  Level FlightAware Approximate
Wed 11:04:00 AM 18.4500 -68.8594 270° West  Level FlightAware Approximate
Wed 11:05:00 AM 18.4500 -68.9556 270° West  Level FlightAware Approximate
Wed 11:06:00 AM 18.4460 -69.0517 265° West  Level FlightAware Approximate
Wed 11:07:00 AM 18.4387 -69.1477 265° West  Level FlightAware Approximate
Wed 11:08:00 AM 18.4333 -69.2437 270° West  Level FlightAware Approximate
Wed 11:09:00 AM 18.4333 -69.3399 270° West  Level FlightAware Approximate
Wed 11:10:00 AM 18.4333 -69.4362 270° West  Level FlightAware Approximate
Wed 11:11:00 AM 18.4333 -69.5324 270° West  Level FlightAware Approximate
Wed 11:12:00 AM 18.4212 -69.6273 258° West  Level FlightAware Approximate
Wed 11:13:00 AM 18.4167 -69.6500 258° West  Level FlightAware Approximate
Wed 11:14:00 AM 18.4297 -69.6689 258° West  Level Estimated
Wed 11:15:00 AM 18.4297 -69.6689 258° West  Level Estimated
Wed 11:16:00 AM 18.4297 -69.6689 258° West  Level Estimated
Wed 11:17:00 AM 18.4297 -69.6689 258° West  Level Estimated

Login

Don't have an account? Register now (free) for customized features, flight alerts, and more!